sensor_id;sensor_type;location;lat;lon;timestamp;pressure;altitude;pressure_sealevel;temperature;humidity
67697;BME280;54486;51.442;6.778;2023-01-15T00:02:14;99831.19;;;7.00;100.00
67697;BME280;54486;51.442;6.778;2023-01-15T00:04:44;99821.69;;;6.99;100.00
67697;BME280;54486;51.442;6.778;2023-01-15T00:07:12;99805.38;;;6.86;100.00
67697;BME280;54486;51.442;6.778;2023-01-15T00:09:41;99806.28;;;6.85;100.00
67697;BME280;54486;51.442;6.778;2023-01-15T00:12:07;99808.84;;;6.87;100.00
67697;BME280;54486;51.442;6.778;2023-01-15T00:14:34;99805.34;;;6.89;100.00
67697;BME280;54486;51.442;6.778;2023-01-15T00:17:03;99817.44;;;6.90;100.00
67697;BME280;54486;51.442;6.778;2023-01-15T00:19:30;99817.47;;;6.87;100.00
67697;BME280;54486;51.442;6.778;2023-01-15T00:21:57;99809.69;;;6.87;100.00
67697;BME280;54486;51.442;6.778;2023-01-15T00:24:24;99799.31;;;6.90;100.00
67697;BME280;54486;51.442;6.778;2023-01-15T00:27:09;99804.50;;;6.87;100.00
67697;BME280;54486;51.442;6.778;2023-01-15T00:29:55;99787.16;;;6.96;100.00
67697;BME280;54486;51.442;6.778;2023-01-15T00:32:22;99789.75;;;6.96;100.00
67697;BME280;54486;51.442;6.778;2023-01-15T00:34:52;99783.75;;;6.92;100.00
67697;BME280;54486;51.442;6.778;2023-01-15T00:37:19;99773.34;;;6.93;99.95
67697;BME280;54486;51.442;6.778;2023-01-15T00:39:45;99770.81;;;6.89;99.52
67697;BME280;54486;51.442;6.778;2023-01-15T00:42:12;99795.81;;;6.95;97.48
67697;BME280;54486;51.442;6.778;2023-01-15T00:44:40;99787.16;;;6.92;96.88
67697;BME280;54486;51.442;6.778;2023-01-15T00:47:06;99783.66;;;7.00;95.42
67697;BME280;54486;51.442;6.778;2023-01-15T00:49:41;99790.56;;;7.04;95.88
67697;BME280;54486;51.442;6.778;2023-01-15T00:52:08;99790.50;;;7.10;96.21
67697;BME280;54486;51.442;6.778;2023-01-15T00:54:35;99785.28;;;7.13;94.28
67697;BME280;54486;51.442;6.778;2023-01-15T00:57:02;99758.50;;;7.11;95.94
67697;BME280;54486;51.442;6.778;2023-01-15T00:59:28;99776.66;;;7.11;94.67
67697;BME280;54486;51.442;6.778;2023-01-15T01:01:55;99776.66;;;7.11;95.03
67697;BME280;54486;51.442;6.778;2023-01-15T01:04:22;99766.19;;;7.20;95.35
67697;BME280;54486;51.442;6.778;2023-01-15T01:06:49;99782.69;;;7.13;94.62
67697;BME280;54486;51.442;6.778;2023-01-15T01:09:16;99776.66;;;7.11;95.48
67697;BME280;54486;51.442;6.778;2023-01-15T01:11:43;99780.09;;;7.13;94.96
67697;BME280;54486;51.442;6.778;2023-01-15T01:14:12;99792.22;;;7.11;95.13
67697;BME280;54486;51.442;6.778;2023-01-15T01:16:40;99819.03;;;7.11;93.71
67697;BME280;54486;51.442;6.778;2023-01-15T01:19:12;99801.69;;;7.18;94.04
67697;BME280;54486;51.442;6.778;2023-01-15T01:21:39;99809.50;;;7.09;94.67
67697;BME280;54486;51.442;6.778;2023-01-15T01:24:06;99824.25;;;7.08;94.55
67697;BME280;54486;51.442;6.778;2023-01-15T01:26:33;99823.41;;;7.05;94.67
67697;BME280;54486;51.442;6.778;2023-01-15T01:29:00;99822.44;;;7.12;93.72
67697;BME280;54486;51.442;6.778;2023-01-15T01:31:27;99818.16;;;7.11;93.47
67697;BME280;54486;51.442;6.778;2023-01-15T01:33:55;99813.72;;;7.22;91.19
67697;BME280;54486;51.442;6.778;2023-01-15T01:36:26;99819.84;;;7.12;91.55
67697;BME280;54486;51.442;6.778;2023-01-15T01:38:54;99818.94;;;7.20;90.89
67697;BME280;54486;51.442;6.778;2023-01-15T01:41:21;99825.88;;;7.15;90.83
67697;BME280;54486;51.442;6.778;2023-01-15T01:43:53;99840.59;;;7.12;91.33
67697;BME280;54486;51.442;6.778;2023-01-15T01:46:21;99830.19;;;7.16;90.66
67697;BME280;54486;51.442;6.778;2023-01-15T01:48:49;99821.56;;;7.16;90.69
67697;BME280;54486;51.442;6.778;2023-01-15T01:51:18;99824.22;;;7.11;90.87
67697;BME280;54486;51.442;6.778;2023-01-15T01:53:47;99830.25;;;7.09;90.75
67697;BME280;54486;51.442;6.778;2023-01-15T01:56:15;99833.72;;;7.11;90.95
67697;BME280;54486;51.442;6.778;2023-01-15T01:58:47;99849.31;;;7.08;91.35
67697;BME280;54486;51.442;6.778;2023-01-15T02:01:15;99838.97;;;7.05;90.22
67697;BME280;54486;51.442;6.778;2023-01-15T02:03:43;99832.03;;;7.07;90.37
67697;BME280;54486;51.442;6.778;2023-01-15T02:06:10;99817.38;;;7.01;91.32
67697;BME280;54486;51.442;6.778;2023-01-15T02:08:40;99819.91;;;7.06;90.59
67697;BME280;54486;51.442;6.778;2023-01-15T02:11:11;99819.91;;;7.06;89.96
67697;BME280;54486;51.442;6.778;2023-01-15T02:13:41;99821.63;;;7.07;90.46
67697;BME280;54486;51.442;6.778;2023-01-15T02:28:55;99803.50;;;7.08;88.50
67697;BME280;54486;51.442;6.778;2023-01-15T02:31:26;99793.94;;;7.09;89.10
67697;BME280;54486;51.442;6.778;2023-01-15T02:33:56;99785.34;;;7.07;89.07
67697;BME280;54486;51.442;6.778;2023-01-15T02:36:25;99784.38;;;7.17;88.71
67697;BME280;54486;51.442;6.778;2023-01-15T02:38:53;99792.25;;;7.08;89.09
67697;BME280;54486;51.442;6.778;2023-01-15T02:41:24;99808.69;;;7.02;87.94
67697;BME280;54486;51.442;6.778;2023-01-15T02:43:53;99813.06;;;7.02;89.11
67697;BME280;54486;51.442;6.778;2023-01-15T02:46:23;99809.56;;;7.03;87.74
67697;BME280;54486;51.442;6.778;2023-01-15T02:48:52;99811.28;;;7.04;87.56
67697;BME280;54486;51.442;6.778;2023-01-15T02:51:25;99792.31;;;7.02;86.99
67697;BME280;54486;51.442;6.778;2023-01-15T02:53:55;99802.72;;;6.99;87.99
67697;BME280;54486;51.442;6.778;2023-01-15T02:56:24;99797.50;;;7.02;88.10
67697;BME280;54486;51.442;6.778;2023-01-15T02:58:54;99794.00;;;7.03;88.64
67697;BME280;54486;51.442;6.778;2023-01-15T03:01:24;99788.78;;;7.06;87.97
67697;BME280;54486;51.442;6.778;2023-01-15T03:04:00;99793.16;;;6.99;88.75
67697;BME280;54486;51.442;6.778;2023-01-15T03:08:56;99793.13;;;7.07;88.08
67697;BME280;54486;51.442;6.778;2023-01-15T03:11:23;99785.38;;;7.01;88.16
67697;BME280;54486;51.442;6.778;2023-01-15T03:13:56;99773.25;;;7.03;88.47
67697;BME280;54486;51.442;6.778;2023-01-15T03:16:33;99764.63;;;7.04;88.27
67697;BME280;54486;51.442;6.778;2023-01-15T03:19:03;99767.22;;;7.02;88.35
67697;BME280;54486;51.442;6.778;2023-01-15T03:24:09;99773.19;;;7.09;88.32
67697;BME280;54486;51.442;6.778;2023-01-15T03:26:37;99768.03;;;7.06;89.22
67697;BME280;54486;51.442;6.778;2023-01-15T03:29:03;99768.06;;;7.03;88.92
67697;BME280;54486;51.442;6.778;2023-01-15T03:31:33;99766.31;;;7.06;89.11
67697;BME280;54486;51.442;6.778;2023-01-15T03:34:01;99743.91;;;7.01;89.63
67697;BME280;54486;51.442;6.778;2023-01-15T03:36:28;99753.44;;;6.99;88.72
67697;BME280;54486;51.442;6.778;2023-01-15T03:38:56;99753.41;;;7.02;89.37
67697;BME280;54486;51.442;6.778;2023-01-15T03:41:25;99749.06;;;7.04;89.36
67697;BME280;54486;51.442;6.778;2023-01-15T03:47:05;99762.03;;;7.02;89.69
67697;BME280;54486;51.442;6.778;2023-01-15T03:52:07;99749.06;;;7.04;88.74
67697;BME280;54486;51.442;6.778;2023-01-15T03:54:43;99747.31;;;7.03;89.12
67697;BME280;54486;51.442;6.778;2023-01-15T03:57:29;99749.06;;;7.02;89.34
67697;BME280;54486;51.442;6.778;2023-01-15T04:00:03;99752.56;;;6.97;89.54
67697;BME280;54486;51.442;6.778;2023-01-15T04:02:33;99756.03;;;6.96;89.93
67697;BME280;54486;51.442;6.778;2023-01-15T04:05:02;99762.94;;;6.97;90.64
67697;BME280;54486;51.442;6.778;2023-01-15T04:07:29;99764.72;;;6.91;89.58
67697;BME280;54486;51.442;6.778;2023-01-15T04:09:57;99762.09;;;6.96;89.99
67697;BME280;54486;51.442;6.778;2023-01-15T04:12:24;99761.22;;;6.99;89.99
67697;BME280;54486;51.442;6.778;2023-01-15T04:14:53;99768.16;;;6.93;89.77
67697;BME280;54486;51.442;6.778;2023-01-15T04:17:22;99762.91;;;7.00;89.07
67697;BME280;54486;51.442;6.778;2023-01-15T04:19:48;99759.50;;;6.93;89.86
67697;BME280;54486;51.442;6.778;2023-01-15T04:22:17;99769.00;;;6.99;89.74
67697;BME280;54486;51.442;6.778;2023-01-15T04:24:44;99768.19;;;6.90;90.93
67697;BME280;54486;51.442;6.778;2023-01-15T04:27:11;99761.22;;;6.99;90.22
67697;BME280;54486;51.442;6.778;2023-01-15T04:29:37;99766.47;;;6.89;90.45
67697;BME280;54486;51.442;6.778;2023-01-15T04:32:05;99763.00;;;6.90;89.34
67697;BME280;54486;51.442;6.778;2023-01-15T04:34:32;99776.81;;;6.92;89.65
67697;BME280;54486;51.442;6.778;2023-01-15T04:37:00;99770.72;;;6.97;89.60
67697;BME280;54486;51.442;6.778;2023-01-15T04:39:26;99767.25;;;6.96;90.30
67697;BME280;54486;51.442;6.778;2023-01-15T04:41:53;99762.91;;;7.00;89.99
67697;BME280;54486;51.442;6.778;2023-01-15T04:44:39;99770.75;;;6.95;89.62
67697;BME280;54486;51.442;6.778;2023-01-15T04:47:06;99762.97;;;6.93;89.76
67697;BME280;54486;51.442;6.778;2023-01-15T04:49:33;99766.41;;;6.96;90.84
67697;BME280;54486;51.442;6.778;2023-01-15T04:52:00;99766.41;;;6.99;89.35
67697;BME280;54486;51.442;6.778;2023-01-15T04:54:27;99765.50;;;7.00;89.05
67697;BME280;54486;51.442;6.778;2023-01-15T04:56:54;99774.19;;;6.99;88.89
67697;BME280;54486;51.442;6.778;2023-01-15T04:59:22;99768.06;;;7.03;88.13
67697;BME280;54486;51.442;6.778;2023-01-15T05:01:49;99762.78;;;7.12;87.72
67697;BME280;54486;51.442;6.778;2023-01-15T05:04:31;99765.47;;;7.04;87.97
67697;BME280;54486;51.442;6.778;2023-01-15T05:06:59;99769.75;;;7.10;87.66
67697;BME280;54486;51.442;6.778;2023-01-15T05:09:26;99769.81;;;7.04;87.57
67697;BME280;54486;51.442;6.778;2023-01-15T05:11:53;99768.00;;;7.09;87.62
67697;BME280;54486;51.442;6.778;2023-01-15T05:14:20;99767.19;;;7.08;87.65
67697;BME280;54486;51.442;6.778;2023-01-15T05:16:47;99768.03;;;7.06;88.80
67697;BME280;54486;51.442;6.778;2023-01-15T05:19:14;99764.56;;;7.10;87.97
67697;BME280;54486;51.442;6.778;2023-01-15T05:21:42;99780.97;;;7.10;87.78
67697;BME280;54486;51.442;6.778;2023-01-15T05:24:10;99773.16;;;7.12;87.93
67697;BME280;54486;51.442;6.778;2023-01-15T05:26:39;99773.22;;;7.06;88.20
67697;BME280;54486;51.442;6.778;2023-01-15T05:29:06;99768.00;;;7.09;87.55
67697;BME280;54486;51.442;6.778;2023-01-15T05:31:33;99775.03;;;7.01;88.09
67697;BME280;54486;51.442;6.778;2023-01-15T05:34:00;99765.53;;;6.98;88.42
67697;BME280;54486;51.442;6.778;2023-01-15T05:36:28;99764.59;;;7.07;87.37
67697;BME280;54486;51.442;6.778;2023-01-15T05:38:56;99766.34;;;7.05;87.45
67697;BME280;54486;51.442;6.778;2023-01-15T05:41:27;99766.31;;;7.08;87.48
67697;BME280;54486;51.442;6.778;2023-01-15T05:44:14;99779.22;;;7.12;87.37
67697;BME280;54486;51.442;6.778;2023-01-15T05:46:41;99764.50;;;7.16;85.78
67697;BME280;54486;51.442;6.778;2023-01-15T05:49:13;99769.69;;;7.16;86.65
67697;BME280;54486;51.442;6.778;2023-01-15T05:51:40;99761.94;;;7.14;86.20
67697;BME280;54486;51.442;6.778;2023-01-15T05:54:09;99766.25;;;7.14;87.00
67697;BME280;54486;51.442;6.778;2023-01-15T05:56:36;99771.47;;;7.11;85.83
67697;BME280;54486;51.442;6.778;2023-01-15T05:59:04;99769.69;;;7.16;85.31
67697;BME280;54486;51.442;6.778;2023-01-15T06:01:32;99755.88;;;7.14;85.61
67697;BME280;54486;51.442;6.778;2023-01-15T06:04:00;99763.66;;;7.14;85.03
67697;BME280;54486;51.442;6.778;2023-01-15T06:06:28;99773.13;;;7.15;84.78
67697;BME280;54486;51.442;6.778;2023-01-15T06:08:55;99786.09;;;7.18;84.41
67697;BME280;54486;51.442;6.778;2023-01-15T06:11:23;99767.94;;;7.15;84.64
67697;BME280;54486;51.442;6.778;2023-01-15T06:13:50;99784.41;;;7.14;84.85
67697;BME280;54486;51.442;6.778;2023-01-15T06:16:17;99771.53;;;7.05;86.09
67697;BME280;54486;51.442;6.778;2023-01-15T06:18:44;99789.63;;;7.11;84.98
67697;BME280;54486;51.442;6.778;2023-01-15T06:21:12;99787.03;;;7.11;85.07
67697;BME280;54486;51.442;6.778;2023-01-15T06:23:40;99787.94;;;7.08;85.86
67697;BME280;54486;51.442;6.778;2023-01-15T06:26:09;99792.25;;;7.08;85.72
67697;BME280;54486;51.442;6.778;2023-01-15T06:28:36;99793.91;;;7.12;84.64
67697;BME280;54486;51.442;6.778;2023-01-15T06:31:04;99792.19;;;7.14;85.27
67697;BME280;54486;51.442;6.778;2023-01-15T06:33:31;99787.00;;;7.14;85.36
67697;BME280;54486;51.442;6.778;2023-01-15T06:36:08;99789.59;;;7.14;84.88
67697;BME280;54486;51.442;6.778;2023-01-15T06:38:37;99780.13;;;7.10;85.61
67697;BME280;54486;51.442;6.778;2023-01-15T06:41:04;99793.94;;;7.09;85.54
67697;BME280;54486;51.442;6.778;2023-01-15T06:43:52;99788.69;;;7.15;85.24
67697;BME280;54486;51.442;6.778;2023-01-15T06:46:39;99796.44;;;7.19;84.52
67697;BME280;54486;51.442;6.778;2023-01-15T06:49:26;99785.28;;;7.13;85.06
67697;BME280;54486;51.442;6.778;2023-01-15T06:51:54;99792.22;;;7.11;85.33
67697;BME280;54486;51.442;6.778;2023-01-15T06:54:20;99796.53;;;7.09;85.32
67697;BME280;54486;51.442;6.778;2023-01-15T06:56:47;99794.81;;;7.09;85.07
67697;BME280;54486;51.442;6.778;2023-01-15T06:59:14;99783.50;;;7.15;85.07
67697;BME280;54486;51.442;6.778;2023-01-15T07:01:41;99793.09;;;7.11;85.41
67697;BME280;54486;51.442;6.778;2023-01-15T07:04:08;99780.97;;;7.10;85.80
67697;BME280;54486;51.442;6.778;2023-01-15T07:06:35;99793.09;;;7.10;86.07
67697;BME280;54486;51.442;6.778;2023-01-15T07:09:02;99780.13;;;7.10;85.91
67697;BME280;54486;51.442;6.778;2023-01-15T07:11:29;99782.78;;;7.04;85.29
67697;BME280;54486;51.442;6.778;2023-01-15T07:13:56;99790.56;;;7.04;84.73
67697;BME280;54486;51.442;6.778;2023-01-15T07:16:33;99780.19;;;7.04;85.23
67697;BME280;54486;51.442;6.778;2023-01-15T07:19:01;99808.66;;;7.05;84.10
67697;BME280;54486;51.442;6.778;2023-01-15T07:21:28;99787.13;;;7.02;83.62
67697;BME280;54486;51.442;6.778;2023-01-15T07:23:57;99782.75;;;7.02;83.83
67697;BME280;54486;51.442;6.778;2023-01-15T07:26:25;99800.94;;;7.01;83.03
67697;BME280;54486;51.442;6.778;2023-01-15T07:28:52;99809.56;;;7.03;82.91
67697;BME280;54486;51.442;6.778;2023-01-15T07:31:19;99806.13;;;7.01;82.73
67697;BME280;54486;51.442;6.778;2023-01-15T07:33:46;99813.91;;;6.99;82.52
67697;BME280;54486;51.442;6.778;2023-01-15T07:36:13;99802.69;;;7.02;82.88
67697;BME280;54486;51.442;6.778;2023-01-15T07:38:40;99816.47;;;7.04;82.36
67697;BME280;54486;51.442;6.778;2023-01-15T07:41:07;99820.81;;;7.05;82.07
67697;BME280;54486;51.442;6.778;2023-01-15T07:43:53;99838.97;;;7.05;82.29
67697;BME280;54486;51.442;6.778;2023-01-15T07:46:38;99832.06;;;7.01;82.56
67697;BME280;54486;51.442;6.778;2023-01-15T07:49:23;99835.59;;;6.95;82.88
67697;BME280;54486;51.442;6.778;2023-01-15T07:52:08;99830.38;;;6.97;82.94
67697;BME280;54486;51.442;6.778;2023-01-15T07:54:36;99821.72;;;6.98;83.18
67697;BME280;54486;51.442;6.778;2023-01-15T07:57:03;99832.94;;;7.00;82.57
67697;BME280;54486;51.442;6.778;2023-01-15T07:59:31;99825.19;;;6.97;83.57
67697;BME280;54486;51.442;6.778;2023-01-15T08:01:58;99851.13;;;6.98;83.32
67697;BME280;54486;51.442;6.778;2023-01-15T08:04:25;99842.41;;;7.04;82.96
67697;BME280;54486;51.442;6.778;2023-01-15T08:06:52;99855.34;;;7.07;82.82
67697;BME280;54486;51.442;6.778;2023-01-15T08:09:19;99850.25;;;6.96;83.40
67697;BME280;54486;51.442;6.778;2023-01-15T08:11:46;99851.16;;;6.90;83.01
67697;BME280;54486;51.442;6.778;2023-01-15T08:14:32;99860.69;;;6.91;82.85
67697;BME280;54486;51.442;6.778;2023-01-15T08:17:17;99868.44;;;6.91;82.34
67697;BME280;54486;51.442;6.778;2023-01-15T08:19:45;99863.28;;;6.88;80.79
67697;BME280;54486;51.442;6.778;2023-01-15T08:22:12;99863.28;;;6.88;81.88
67697;BME280;54486;51.442;6.778;2023-01-15T08:24:39;99871.94;;;6.84;82.38
67697;BME280;54486;51.442;6.778;2023-01-15T08:27:06;99868.47;;;6.88;83.07
67697;BME280;54486;51.442;6.778;2023-01-15T08:29:33;99877.94;;;6.89;81.86
67697;BME280;54486;51.442;6.778;2023-01-15T08:31:59;99866.78;;;6.81;82.47
67697;BME280;54486;51.442;6.778;2023-01-15T08:34:28;99879.78;;;6.75;81.70
67697;BME280;54486;51.442;6.778;2023-01-15T08:36:55;99877.97;;;6.86;81.61
67697;BME280;54486;51.442;6.778;2023-01-15T08:39:26;99883.19;;;6.83;80.40
67697;BME280;54486;51.442;6.778;2023-01-15T08:41:54;99873.75;;;6.76;80.59
67697;BME280;54486;51.442;6.778;2023-01-15T08:44:21;99880.63;;;6.80;80.59
67697;BME280;54486;51.442;6.778;2023-01-15T08:46:49;99873.78;;;6.67;80.85
67697;BME280;54486;51.442;6.778;2023-01-15T08:49:17;99879.00;;;6.61;80.69
67697;BME280;54486;51.442;6.778;2023-01-15T08:51:44;99885.09;;;6.57;81.02
67697;BME280;54486;51.442;6.778;2023-01-15T08:54:11;99879.88;;;6.59;80.85
67697;BME280;54486;51.442;6.778;2023-01-15T08:56:38;99887.66;;;6.60;79.69
67697;BME280;54486;51.442;6.778;2023-01-15T08:59:05;99881.63;;;6.60;80.61
67697;BME280;54486;51.442;6.778;2023-01-15T09:01:34;99878.16;;;6.58;80.50
67697;BME280;54486;51.442;6.778;2023-01-15T09:04:01;99896.31;;;6.56;79.38
67697;BME280;54486;51.442;6.778;2023-01-15T09:06:28;99904.06;;;6.61;79.58
67697;BME280;54486;51.442;6.778;2023-01-15T09:08:57;99911.00;;;6.51;79.80
67697;BME280;54486;51.442;6.778;2023-01-15T09:11:24;99908.41;;;6.51;79.12
67697;BME280;54486;51.442;6.778;2023-01-15T09:13:51;99908.47;;;6.45;78.72
67697;BME280;54486;51.442;6.778;2023-01-15T09:16:19;99919.69;;;6.50;78.82
67697;BME280;54486;51.442;6.778;2023-01-15T09:18:47;99904.19;;;6.39;77.96
67697;BME280;54486;51.442;6.778;2023-01-15T09:21:14;99915.38;;;6.43;78.47
67697;BME280;54486;51.442;6.778;2023-01-15T09:23:41;99910.22;;;6.43;78.44
67697;BME280;54486;51.442;6.778;2023-01-15T09:26:22;99900.69;;;6.42;79.34
67697;BME280;54486;51.442;6.778;2023-01-15T09:28:51;99889.50;;;6.40;79.55
67697;BME280;54486;51.442;6.778;2023-01-15T09:31:17;99891.22;;;6.39;80.11
67697;BME280;54486;51.442;6.778;2023-01-15T09:33:44;99896.41;;;6.44;79.36
67697;BME280;54486;51.442;6.778;2023-01-15T09:36:18;99890.38;;;6.41;79.96
67697;BME280;54486;51.442;6.778;2023-01-15T09:38:45;99880.84;;;6.44;80.06
67697;BME280;54486;51.442;6.778;2023-01-15T09:41:12;99886.88;;;6.42;80.17
67697;BME280;54486;51.442;6.778;2023-01-15T09:44:07;99888.59;;;6.47;80.49
67697;BME280;54486;51.442;6.778;2023-01-15T09:51:40;99891.09;;;6.65;80.75
67697;BME280;54486;51.442;6.778;2023-01-15T09:54:31;99897.94;;;6.74;79.42
67697;BME280;54486;51.442;6.778;2023-01-15T09:57:10;99893.63;;;6.76;80.00
67697;BME280;54486;51.442;6.778;2023-01-15T09:59:38;99890.13;;;6.81;80.18
67697;BME280;54486;51.442;6.778;2023-01-15T10:04:56;99890.88;;;6.99;77.24
67697;BME280;54486;51.442;6.778;2023-01-15T10:07:31;99883.84;;;7.13;76.93
67697;BME280;54486;51.442;6.778;2023-01-15T10:10:09;99921.00;;;7.18;77.00
67697;BME280;54486;51.442;6.778;2023-01-15T10:12:37;99906.16;;;7.32;76.84
67697;BME280;54486;51.442;6.778;2023-01-15T10:17:43;99936.38;;;7.40;75.98
67697;BME280;54486;51.442;6.778;2023-01-15T10:22:45;99908.81;;;7.27;72.79
67697;BME280;54486;51.442;6.778;2023-01-15T10:25:16;99887.22;;;7.24;73.92
67697;BME280;54486;51.442;6.778;2023-01-15T10:27:49;99920.09;;;7.19;72.65
67697;BME280;54486;51.442;6.778;2023-01-15T10:30:39;99916.56;;;7.32;71.97
67697;BME280;54486;51.442;6.778;2023-01-15T10:33:16;99925.09;;;7.46;72.02
67697;BME280;54486;51.442;6.778;2023-01-15T10:35:55;99914.72;;;7.46;71.49
67697;BME280;54486;51.442;6.778;2023-01-15T10:38:30;99931.16;;;7.47;70.92
67697;BME280;54486;51.442;6.778;2023-01-15T10:45:59;99943.19;;;7.55;69.82
67697;BME280;54486;51.442;6.778;2023-01-15T10:48:29;99930.13;;;7.64;70.28
67697;BME280;54486;51.442;6.778;2023-01-15T10:50:56;99930.00;;;7.76;69.91
67697;BME280;54486;51.442;6.778;2023-01-15T10:56:32;99947.16;;;7.92;69.57
67697;BME280;54486;51.442;6.778;2023-01-15T11:01:42;99936.78;;;7.89;68.90
67697;BME280;54486;51.442;6.778;2023-01-15T11:04:10;99943.78;;;7.84;68.77
67697;BME280;54486;51.442;6.778;2023-01-15T11:06:42;99943.78;;;7.84;68.96
67697;BME280;54486;51.442;6.778;2023-01-15T11:09:16;99941.22;;;7.80;68.97
67697;BME280;54486;51.442;6.778;2023-01-15T11:11:47;99938.69;;;7.75;69.64
67697;BME280;54486;51.442;6.778;2023-01-15T11:14:33;99943.88;;;7.75;68.79
67697;BME280;54486;51.442;6.778;2023-01-15T11:17:19;99918.69;;;7.82;68.31
67697;BME280;54486;51.442;6.778;2023-01-15T11:20:41;99924.78;;;7.79;69.41
67697;BME280;54486;51.442;6.778;2023-01-15T11:23:07;99928.28;;;7.72;69.48
67697;BME280;54486;51.442;6.778;2023-01-15T11:25:35;99929.94;;;7.82;70.07
67697;BME280;54486;51.442;6.778;2023-01-15T11:28:02;99919.56;;;7.79;68.98
67697;BME280;54486;51.442;6.778;2023-01-15T11:30:34;99948.94;;;7.87;69.42
67697;BME280;54486;51.442;6.778;2023-01-15T11:33:06;99912.66;;;7.81;68.51
67697;BME280;54486;51.442;6.778;2023-01-15T11:35:52;99926.50;;;7.80;68.58
67697;BME280;54486;51.442;6.778;2023-01-15T11:38:25;99923.81;;;7.89;69.56
67697;BME280;54486;51.442;6.778;2023-01-15T11:40:53;99928.13;;;7.90;68.76
67697;BME280;54486;51.442;6.778;2023-01-15T11:43:23;99909.13;;;7.85;68.80
67697;BME280;54486;51.442;6.778;2023-01-15T11:49:07;99910.91;;;7.80;68.05
67697;BME280;54486;51.442;6.778;2023-01-15T11:51:54;99902.31;;;7.78;68.41
67697;BME280;54486;51.442;6.778;2023-01-15T11:54:24;99923.03;;;7.81;68.49
67697;BME280;54486;51.442;6.778;2023-01-15T11:56:52;99929.09;;;7.79;67.97
67697;BME280;54486;51.442;6.778;2023-01-15T11:59:19;99922.22;;;7.76;69.13
67697;BME280;54486;51.442;6.778;2023-01-15T12:01:51;99928.28;;;7.75;69.59
67697;BME280;54486;51.442;6.778;2023-01-15T12:04:27;99934.34;;;7.74;69.12
67697;BME280;54486;51.442;6.778;2023-01-15T12:06:56;99917.81;;;7.84;69.03
67697;BME280;54486;51.442;6.778;2023-01-15T12:12:02;99925.56;;;7.86;68.52
67697;BME280;54486;51.442;6.778;2023-01-15T12:17:25;99924.75;;;7.82;68.57
67697;BME280;54486;51.442;6.778;2023-01-15T12:22:41;99926.53;;;7.76;68.44
67697;BME280;54486;51.442;6.778;2023-01-15T12:27:56;99929.25;;;7.65;69.41
67697;BME280;54486;51.442;6.778;2023-01-15T12:30:30;99928.28;;;7.72;69.01
67697;BME280;54486;51.442;6.778;2023-01-15T12:36:02;99898.78;;;7.82;68.43
67697;BME280;54486;51.442;6.778;2023-01-15T12:38:44;99906.69;;;7.72;68.70
67697;BME280;54486;51.442;6.778;2023-01-15T12:41:15;99884.13;;;7.78;68.29
67697;BME280;54486;51.442;6.778;2023-01-15T12:43:43;99891.97;;;7.69;68.07
67697;BME280;54486;51.442;6.778;2023-01-15T12:46:31;99901.47;;;7.73;68.88
67697;BME280;54486;51.442;6.778;2023-01-15T12:49:18;99904.88;;;7.80;68.51
67697;BME280;54486;51.442;6.778;2023-01-15T12:52:02;99915.16;;;7.89;68.75
67697;BME280;54486;51.442;6.778;2023-01-15T12:54:33;99906.50;;;7.88;68.92
67697;BME280;54486;51.442;6.778;2023-01-15T12:57:16;99903.94;;;7.85;68.40
67697;BME280;54486;51.442;6.778;2023-01-15T12:59:49;99910.94;;;7.76;68.63
67697;BME280;54486;51.442;6.778;2023-01-15T13:02:20;99924.81;;;7.76;69.30
67697;BME280;54486;51.442;6.778;2023-01-15T13:05:06;99907.50;;;7.78;68.91
67697;BME280;54486;51.442;6.778;2023-01-15T13:07:38;99939.53;;;7.77;69.36
67697;BME280;54486;51.442;6.778;2023-01-15T13:10:18;99913.59;;;7.74;69.27
67697;BME280;54486;51.442;6.778;2023-01-15T13:12:45;99930.09;;;7.67;69.51
67697;BME280;54486;51.442;6.778;2023-01-15T13:15:13;99926.66;;;7.65;69.84
67697;BME280;54486;51.442;6.778;2023-01-15T13:17:55;99921.41;;;7.70;69.84
67697;BME280;54486;51.442;6.778;2023-01-15T13:20:30;99936.91;;;7.77;69.13
67697;BME280;54486;51.442;6.778;2023-01-15T13:31:06;99916.25;;;7.68;69.95
67697;BME280;54486;51.442;6.778;2023-01-15T13:33:44;99920.50;;;7.74;68.95
67697;BME280;54486;51.442;6.778;2023-01-15T13:36:16;99917.94;;;7.69;69.29
67697;BME280;54486;51.442;6.778;2023-01-15T13:38:45;99914.47;;;7.70;69.25
67697;BME280;54486;51.442;6.778;2023-01-15T13:41:17;99898.84;;;7.76;69.07
67697;BME280;54486;51.442;6.778;2023-01-15T13:44:04;99919.66;;;7.70;69.57
67697;BME280;54486;51.442;6.778;2023-01-15T13:46:32;99923.16;;;7.68;68.90
67697;BME280;54486;51.442;6.778;2023-01-15T13:48:59;99916.16;;;7.77;69.16
67697;BME280;54486;51.442;6.778;2023-01-15T13:51:31;99914.41;;;7.76;68.98
67697;BME280;54486;51.442;6.778;2023-01-15T13:53:58;99912.66;;;7.81;69.60
67697;BME280;54486;51.442;6.778;2023-01-15T13:56:28;99924.78;;;7.79;69.66
67697;BME280;54486;51.442;6.778;2023-01-15T13:59:03;99929.97;;;7.79;69.74
67697;BME280;54486;51.442;6.778;2023-01-15T14:06:42;99919.31;;;8.07;69.65
67697;BME280;54486;51.442;6.778;2023-01-15T14:09:13;99923.63;;;8.06;67.62
67697;BME280;54486;51.442;6.778;2023-01-15T14:22:57;99960.09;;;7.95;67.30
67697;BME280;54486;51.442;6.778;2023-01-15T14:25:30;99951.53;;;7.86;68.94
67697;BME280;54486;51.442;6.778;2023-01-15T14:28:16;99966.22;;;7.88;68.25
67697;BME280;54486;51.442;6.778;2023-01-15T14:35:45;99955.88;;;7.85;68.92
67697;BME280;54486;51.442;6.778;2023-01-15T14:38:14;99952.41;;;7.86;68.98
67697;BME280;54486;51.442;6.778;2023-01-15T14:41:00;99959.41;;;7.81;69.32
67697;BME280;54486;51.442;6.778;2023-01-15T14:43:29;99992.25;;;7.82;69.34
67697;BME280;54486;51.442;6.778;2023-01-15T14:46:33;99953.28;;;7.87;68.03
67697;BME280;54486;51.442;6.778;2023-01-15T14:48:53;99960.16;;;7.91;68.76
67697;BME280;54486;51.442;6.778;2023-01-15T14:54:12;99960.19;;;7.85;67.37
67697;BME280;54486;51.442;6.778;2023-01-15T14:56:43;99969.78;;;7.81;67.51
67697;BME280;54486;51.442;6.778;2023-01-15T15:01:43;99969.69;;;7.90;67.30
67697;BME280;54486;51.442;6.778;2023-01-15T15:07:00;99963.63;;;7.88;68.19
67697;BME280;54486;51.442;6.778;2023-01-15T15:09:45;99971.47;;;7.84;68.28
67697;BME280;54486;51.442;6.778;2023-01-15T15:14:48;99981.88;;;7.84;67.95